createdAt,value
2018-05-15T00:01:35.343Z,96802.52
2018-05-15T00:04:06.366Z,96799.49
2018-05-15T00:06:37.360Z,96796.10
2018-05-15T00:09:08.347Z,96794.34
2018-05-15T00:11:39.345Z,96790.48
2018-05-15T00:14:10.358Z,96783.25
2018-05-15T00:16:41.335Z,96786.25
2018-05-15T00:19:12.396Z,96790.21
2018-05-15T00:21:43.390Z,96791.27
2018-05-15T00:24:14.403Z,96787.98
2018-05-15T00:26:45.436Z,96783.84
2018-05-15T00:29:16.397Z,96785.94
2018-05-15T00:31:47.427Z,96783.99
2018-05-15T00:34:18.457Z,96780.64
2018-05-15T00:36:49.664Z,96777.22
2018-05-15T00:39:20.875Z,96777.03
2018-05-15T00:41:52.037Z,96781.80
2018-05-15T00:44:23.091Z,96778.94
2018-05-15T00:46:54.506Z,96780.12
2018-05-15T00:49:25.736Z,96778.56
2018-05-15T00:51:57.084Z,96779.70
2018-05-15T00:54:28.348Z,96781.44
2018-05-15T00:56:59.496Z,96782.39
2018-05-15T00:59:30.689Z,96788.42
2018-05-15T01:02:01.837Z,96791.94
2018-05-15T01:04:33.057Z,96790.62
2018-05-15T01:07:04.100Z,96798.09
2018-05-15T01:09:35.183Z,96799.80
2018-05-15T01:12:06.266Z,96794.06
2018-05-15T01:14:37.373Z,96800.30
2018-05-15T01:17:08.346Z,96797.23
2018-05-15T01:19:39.332Z,96797.55
2018-05-15T01:22:10.326Z,96798.89
2018-05-15T01:24:41.314Z,96802.00
2018-05-15T01:27:12.373Z,96796.25
2018-05-15T01:29:43.327Z,96795.21
2018-05-15T01:32:14.331Z,96798.36
2018-05-15T01:34:45.311Z,96798.22
2018-05-15T01:37:16.330Z,96794.70
2018-05-15T01:39:47.285Z,96799.91
2018-05-15T01:42:18.311Z,96804.66
2018-05-15T01:44:49.329Z,96812.80
2018-05-15T01:47:20.400Z,96816.75
2018-05-15T01:49:51.368Z,96816.98
2018-05-15T01:52:22.407Z,96812.39
2018-05-15T01:54:53.413Z,96819.82
2018-05-15T01:57:24.410Z,96820.75
2018-05-15T01:59:55.520Z,96825.66
2018-05-15T02:02:26.507Z,96821.61
2018-05-15T02:04:57.494Z,96822.20
2018-05-15T02:07:28.501Z,96818.38
2018-05-15T02:09:59.509Z,96827.66
2018-05-15T02:12:30.550Z,96833.55
2018-05-15T02:15:01.522Z,96824.36
2018-05-15T02:17:32.567Z,96832.50
2018-05-15T02:20:03.542Z,96823.37
2018-05-15T02:22:34.582Z,96821.49
2018-05-15T02:25:05.589Z,96829.55
2018-05-15T02:27:36.686Z,96825.93
2018-05-15T02:30:07.666Z,96824.08
2018-05-15T02:32:38.654Z,96822.50
2018-05-15T02:35:09.704Z,96830.27
2018-05-15T02:37:40.682Z,96833.56
2018-05-15T02:40:11.688Z,96832.63
2018-05-15T02:42:42.710Z,96844.06
2018-05-15T02:45:13.763Z,96840.08
2018-05-15T02:47:44.808Z,96845.97
2018-05-15T02:50:15.806Z,96845.65
2018-05-15T02:52:46.811Z,96845.30
2018-05-15T02:55:17.824Z,96843.80
2018-05-15T02:57:48.815Z,96841.72
2018-05-15T03:00:19.802Z,96839.21
2018-05-15T03:02:50.825Z,96833.72
2018-05-15T03:05:21.847Z,96837.13
2018-05-15T03:07:52.838Z,96837.74
2018-05-15T03:10:23.851Z,96841.69
2018-05-15T03:12:54.863Z,96846.13
2018-05-15T03:15:25.887Z,96842.97
2018-05-15T03:17:56.868Z,96847.34
2018-05-15T03:20:27.869Z,96841.49
2018-05-15T03:22:58.838Z,96845.13
2018-05-15T03:25:29.878Z,96843.94
2018-05-15T03:28:00.944Z,96844.51
2018-05-15T03:30:31.918Z,96849.75
2018-05-15T03:33:02.878Z,96843.75
2018-05-15T03:35:33.914Z,96848.64
2018-05-15T03:38:04.931Z,96855.13
2018-05-15T03:40:35.952Z,96857.67
2018-05-15T03:43:07.066Z,96860.98
2018-05-15T03:45:38.082Z,96863.95
2018-05-15T03:48:09.022Z,96865.64
2018-05-15T03:50:39.995Z,96871.34
2018-05-15T03:53:10.995Z,96879.39
2018-05-15T03:55:42.004Z,96877.23
2018-05-15T03:58:12.961Z,96880.63
2018-05-15T04:00:56.321Z,96880.77
2018-05-15T04:03:39.704Z,96884.15
2018-05-15T04:06:23.026Z,96890.25
2018-05-15T04:08:54.020Z,96888.39
2018-05-15T04:11:25.038Z,96891.25
2018-05-15T04:13:56.070Z,96894.97
2018-05-15T04:16:27.137Z,96902.92
2018-05-15T04:18:58.071Z,96901.67
2018-05-15T04:21:29.096Z,96901.52
2018-05-15T04:24:00.085Z,96898.70
2018-05-15T04:26:31.115Z,96897.88
2018-05-15T04:29:02.113Z,96900.20
2018-05-15T04:31:33.180Z,96904.27
2018-05-15T04:34:04.172Z,96910.86
2018-05-15T04:36:35.160Z,96908.20
2018-05-15T04:39:06.181Z,96912.52
2018-05-15T04:41:37.225Z,96914.06
2018-05-15T04:44:08.209Z,96916.63
2018-05-15T04:46:39.194Z,96916.66
2018-05-15T04:49:10.206Z,96920.38
2018-05-15T04:51:41.180Z,96915.66
2018-05-15T04:54:12.193Z,96919.59
2018-05-15T04:56:43.170Z,96928.11
2018-05-15T04:59:14.177Z,96932.70
2018-05-15T05:01:45.194Z,96929.58
2018-05-15T05:04:16.209Z,96933.88
2018-05-15T05:06:47.215Z,96933.09
2018-05-15T05:09:18.219Z,96933.62
2018-05-15T05:11:49.283Z,96935.74
2018-05-15T05:14:20.206Z,96937.00
2018-05-15T05:16:51.220Z,96941.84
2018-05-15T05:19:22.212Z,96939.94
2018-05-15T05:21:53.256Z,96946.98
2018-05-15T05:24:24.238Z,96951.44
2018-05-15T05:26:55.280Z,96960.84
2018-05-15T05:29:26.286Z,96957.43
2018-05-15T05:31:57.308Z,96954.67
2018-05-15T05:34:28.311Z,96942.71
2018-05-15T05:36:59.288Z,96945.22
2018-05-15T05:39:30.351Z,96949.45
2018-05-15T05:42:01.352Z,96951.19
2018-05-15T05:44:32.376Z,96959.30
2018-05-15T05:47:03.430Z,96960.52
2018-05-15T05:49:34.381Z,96960.77
2018-05-15T05:52:05.479Z,96964.28
2018-05-15T05:54:36.390Z,96967.45
2018-05-15T05:57:07.444Z,96961.97
2018-05-15T05:59:38.424Z,96957.86
2018-05-15T06:02:09.460Z,96950.92
2018-05-15T06:04:40.412Z,96930.58
2018-05-15T06:07:12.492Z,96928.47
2018-05-15T06:09:43.532Z,96931.12
2018-05-15T06:12:14.576Z,96930.52
2018-05-15T06:14:45.586Z,96938.10
2018-05-15T06:17:16.595Z,96941.20
2018-05-15T06:19:47.598Z,96939.64
2018-05-15T06:22:18.640Z,96928.16
2018-05-15T06:24:49.610Z,96936.39
2018-05-15T06:27:20.646Z,96929.01
2018-05-15T06:29:51.638Z,96932.99
2018-05-15T06:32:22.710Z,96938.64
2018-05-15T06:34:53.716Z,96935.41
2018-05-15T06:37:24.782Z,96945.59
2018-05-15T06:39:55.806Z,96940.50
2018-05-15T06:42:26.791Z,96943.45
2018-05-15T06:44:57.767Z,96942.82
2018-05-15T06:47:28.798Z,96931.47
2018-05-15T06:49:59.778Z,96931.70
2018-05-15T06:52:30.805Z,96930.55
2018-05-15T06:55:01.799Z,96932.96
2018-05-15T06:57:32.809Z,96934.81
2018-05-15T07:00:03.801Z,96937.86
2018-05-15T07:02:34.821Z,96940.34
2018-05-15T07:05:05.800Z,96937.37
2018-05-15T07:07:36.823Z,96936.39
2018-05-15T07:10:07.826Z,96927.75
2018-05-15T07:12:38.853Z,96928.89
2018-05-15T07:15:09.905Z,96937.20
2018-05-15T07:17:40.934Z,96941.50
2018-05-15T07:20:11.954Z,96938.27
2018-05-15T07:22:43.071Z,96943.88
2018-05-15T07:25:14.012Z,96949.19
2018-05-15T07:27:45.040Z,96943.80
2018-05-15T07:30:16.033Z,96941.35
2018-05-15T07:32:47.109Z,96944.31
2018-05-15T07:35:18.125Z,96945.14
2018-05-15T07:37:49.126Z,96944.08
2018-05-15T07:40:20.198Z,96956.55
2018-05-15T07:42:51.146Z,96947.02
2018-05-15T07:45:22.180Z,96938.42
2018-05-15T07:47:53.153Z,96940.84
2018-05-15T07:50:24.189Z,96938.27
2018-05-15T07:52:55.206Z,96932.50
2018-05-15T07:55:26.199Z,96942.77
2018-05-15T07:57:57.168Z,96943.35
2018-05-15T08:00:28.220Z,96943.14
2018-05-15T08:02:59.208Z,96933.58
2018-05-15T08:05:30.215Z,96931.72
2018-05-15T08:08:01.194Z,96931.14
2018-05-15T08:10:32.308Z,96929.45
2018-05-15T08:13:03.239Z,96918.59
2018-05-15T08:15:34.230Z,96920.27
2018-05-15T08:18:05.197Z,96922.17
2018-05-15T08:20:36.211Z,96932.45
2018-05-15T08:23:07.228Z,96926.72
2018-05-15T08:25:38.239Z,96929.47
2018-05-15T08:28:09.263Z,96922.73
2018-05-15T08:30:40.301Z,96927.73
2018-05-15T08:33:11.250Z,96914.37
2018-05-15T08:35:42.280Z,96920.14
2018-05-15T08:38:13.261Z,96926.29
2018-05-15T08:40:44.314Z,96925.08
2018-05-15T08:43:15.321Z,96914.96
2018-05-15T08:45:46.334Z,96929.81
2018-05-15T08:48:17.312Z,96924.98
2018-05-15T08:50:48.325Z,96916.30
2018-05-15T08:53:19.325Z,96924.28
2018-05-15T08:55:50.397Z,96930.67
2018-05-15T08:58:21.362Z,96929.59
2018-05-15T09:00:52.377Z,96943.91
2018-05-15T09:03:23.363Z,96954.31
2018-05-15T09:05:54.388Z,96954.13
2018-05-15T09:08:25.396Z,96947.94
2018-05-15T09:10:56.472Z,96925.46
2018-05-15T09:13:27.484Z,96936.63
2018-05-15T09:15:58.488Z,96939.81
2018-05-15T09:18:29.469Z,96940.34
2018-05-15T09:21:00.489Z,96943.67
2018-05-15T09:23:31.568Z,96943.31
2018-05-15T09:26:02.575Z,96936.48
2018-05-15T09:28:33.632Z,96944.95
2018-05-15T09:31:04.705Z,96947.34
2018-05-15T09:33:35.709Z,96945.25
2018-05-15T09:36:06.792Z,96931.75
2018-05-15T09:38:37.837Z,96932.47
2018-05-15T09:41:08.887Z,96932.86
2018-05-15T09:43:54.808Z,96924.69
2018-05-15T09:46:25.809Z,96921.42
2018-05-15T09:48:56.824Z,96926.00
2018-05-15T09:51:27.801Z,96924.41
2018-05-15T09:53:58.808Z,96926.41
2018-05-15T09:56:29.811Z,96920.63
2018-05-15T09:59:00.880Z,96912.57
2018-05-15T10:01:31.895Z,96915.13
2018-05-15T10:04:02.961Z,96911.72
2018-05-15T10:06:34.159Z,96916.08
2018-05-15T10:09:05.199Z,96909.56
2018-05-15T10:11:36.197Z,96915.39
2018-05-15T10:14:07.352Z,96910.69
2018-05-15T10:16:38.332Z,96897.73
2018-05-15T10:19:09.373Z,96908.89
2018-05-15T10:21:40.395Z,96899.78
2018-05-15T10:24:11.462Z,96888.82
2018-05-15T10:26:42.499Z,96884.66
2018-05-15T10:29:13.556Z,96892.72
2018-05-15T10:31:44.590Z,96892.73
2018-05-15T10:34:15.574Z,96894.86
2018-05-15T10:36:46.567Z,96881.91
2018-05-15T10:39:17.621Z,96882.02
2018-05-15T10:41:48.640Z,96891.74
2018-05-15T10:44:19.652Z,96884.84
2018-05-15T10:46:50.686Z,96877.92
2018-05-15T10:49:21.658Z,96887.50
2018-05-15T10:51:52.704Z,96895.70
2018-05-15T10:54:23.695Z,96895.91
2018-05-15T10:56:54.901Z,96895.95
2018-05-15T10:59:25.780Z,96896.02
2018-05-15T11:01:56.796Z,96885.03
2018-05-15T11:04:27.806Z,96892.02
2018-05-15T11:06:58.790Z,96895.09
2018-05-15T11:09:29.832Z,96894.44
2018-05-15T11:12:00.962Z,96897.63
2018-05-15T11:14:31.952Z,96898.79
2018-05-15T11:17:03.039Z,96906.67
2018-05-15T11:19:46.464Z,96896.95
2018-05-15T11:22:29.780Z,96894.83
2018-05-15T11:25:00.776Z,96897.48
2018-05-15T11:27:31.780Z,96892.27
2018-05-15T11:30:02.832Z,96894.44
2018-05-15T11:32:33.850Z,96887.25
2018-05-15T11:35:04.859Z,96883.78
2018-05-15T11:37:35.854Z,96890.94
2018-05-15T11:40:06.897Z,96882.02
2018-05-15T11:42:37.922Z,96882.14
2018-05-15T11:45:08.918Z,96884.89
2018-05-15T11:47:39.946Z,96889.11
2018-05-15T11:50:11.452Z,96893.98
2018-05-15T11:52:42.289Z,96896.86
2018-05-15T11:55:12.890Z,96894.56
2018-05-15T11:57:43.851Z,96892.47
2018-05-15T12:00:14.895Z,96890.04
2018-05-15T12:02:45.959Z,96888.08
2018-05-15T12:05:16.856Z,96886.64
2018-05-15T12:07:47.861Z,96892.58
2018-05-15T12:10:18.895Z,96883.91
2018-05-15T12:12:49.908Z,96879.62
2018-05-15T12:15:20.942Z,96878.50
2018-05-15T12:17:51.914Z,96883.70
2018-05-15T12:20:22.977Z,96881.75
2018-05-15T12:22:53.910Z,96873.70
2018-05-15T12:25:24.922Z,96874.48
2018-05-15T12:27:55.929Z,96877.95
2018-05-15T12:30:26.949Z,96871.34
2018-05-15T12:33:04.966Z,96866.43
2018-05-15T12:35:36.075Z,96858.89
2018-05-15T12:38:07.104Z,96858.71
2018-05-15T12:40:38.099Z,96856.62
2018-05-15T12:43:09.089Z,96849.50
2018-05-15T12:45:40.095Z,96847.00
2018-05-15T12:48:11.093Z,96857.30
2018-05-15T12:50:42.141Z,96852.28
2018-05-15T12:53:13.108Z,96862.45
2018-05-15T12:55:44.135Z,96868.48
2018-05-15T12:58:15.107Z,96871.09
2018-05-15T13:00:46.155Z,96872.50
2018-05-15T13:03:17.151Z,96874.59
2018-05-15T13:05:48.155Z,96870.98
2018-05-15T13:08:19.175Z,96868.50
2018-05-15T13:10:50.177Z,96874.98
2018-05-15T13:13:21.157Z,96882.96
2018-05-15T13:15:52.121Z,96893.20
2018-05-15T13:18:23.212Z,96907.92
2018-05-15T13:20:54.176Z,96905.05
2018-05-15T13:23:25.181Z,96895.37
2018-05-15T13:25:56.160Z,96898.19
2018-05-15T13:28:27.150Z,96896.67
2018-05-15T13:30:58.172Z,96888.73
2018-05-15T13:33:29.210Z,96877.28
2018-05-15T13:36:00.180Z,96878.44
2018-05-15T13:38:31.365Z,96870.13
2018-05-15T13:41:02.414Z,96876.31
2018-05-15T13:43:33.415Z,96881.98
2018-05-15T13:46:04.437Z,96871.48
2018-05-15T13:48:35.417Z,96875.73
2018-05-15T13:51:06.413Z,96882.02
2018-05-15T13:53:37.416Z,96877.56
2018-05-15T13:56:08.469Z,96887.84
2018-05-15T13:58:39.507Z,96891.69
2018-05-15T14:01:10.523Z,96887.19
2018-05-15T14:03:41.521Z,96888.69
2018-05-15T14:06:12.520Z,96887.91
2018-05-15T14:08:43.526Z,96894.52
2018-05-15T14:11:14.504Z,96902.44
2018-05-15T14:13:45.615Z,96921.11
2018-05-15T14:16:16.566Z,96946.42
2018-05-15T14:18:47.572Z,96953.67
2018-05-15T14:21:18.547Z,96978.02
2018-05-15T14:23:49.589Z,96991.54
2018-05-15T14:26:20.589Z,97001.20
2018-05-15T14:28:51.591Z,96974.77
2018-05-15T14:31:22.614Z,96979.66
2018-05-15T14:33:53.607Z,96949.94
2018-05-15T14:36:24.588Z,96941.14
2018-05-15T14:38:55.594Z,96928.11
2018-05-15T14:41:38.726Z,96915.53
2018-05-15T14:44:09.774Z,96903.98
2018-05-15T14:46:40.738Z,96903.11
2018-05-15T14:49:11.759Z,96907.29
2018-05-15T14:51:42.766Z,96921.92
2018-05-15T14:54:13.806Z,96923.78
2018-05-15T14:56:44.821Z,96916.23
2018-05-15T14:59:15.832Z,96918.36
2018-05-15T15:01:46.848Z,96928.67
2018-05-15T15:04:17.874Z,96935.34
2018-05-15T15:06:48.883Z,96934.12
2018-05-15T15:09:19.872Z,96938.13
2018-05-15T15:11:50.898Z,96943.73
2018-05-15T15:14:21.928Z,96943.30
2018-05-15T15:16:52.902Z,96935.05
2018-05-15T15:19:24.035Z,96939.80
2018-05-15T15:21:55.037Z,96939.05
2018-05-15T15:24:26.287Z,96939.81
2018-05-15T15:26:57.027Z,96940.36
2018-05-15T15:29:28.054Z,96933.41
2018-05-15T15:31:59.062Z,96937.31
2018-05-15T15:34:30.066Z,96932.55
2018-05-15T15:37:01.042Z,96930.03
2018-05-15T15:39:32.054Z,96931.59
2018-05-15T15:42:03.023Z,96934.69
2018-05-15T15:44:34.084Z,96939.42
2018-05-15T15:47:05.091Z,96937.02
2018-05-15T15:49:36.126Z,96931.72
2018-05-15T15:52:07.107Z,96927.69
2018-05-15T15:54:38.141Z,96926.42
2018-05-15T15:57:09.139Z,96927.97
2018-05-15T15:59:40.233Z,96932.03
2018-05-15T16:02:12.411Z,96931.25
2018-05-15T16:04:43.431Z,96932.20
2018-05-15T16:07:14.495Z,96929.13
2018-05-15T16:09:46.410Z,96926.69
2018-05-15T16:12:17.403Z,96931.19
2018-05-15T16:14:48.396Z,96921.37
2018-05-15T16:17:19.402Z,96913.56
2018-05-15T16:19:50.409Z,96920.60
2018-05-15T16:22:22.091Z,96927.63
2018-05-15T16:24:53.144Z,96920.19
2018-05-15T16:27:24.158Z,96917.34
2018-05-15T16:29:55.193Z,96917.67
2018-05-15T16:32:26.279Z,96915.06
2018-05-15T16:34:57.308Z,96928.36
2018-05-15T16:37:28.301Z,96926.52
2018-05-15T16:39:59.320Z,96952.51
2018-05-15T16:42:30.346Z,96965.93
2018-05-15T16:45:01.350Z,96970.80
2018-05-15T16:47:32.371Z,96962.74
2018-05-15T16:50:03.459Z,96962.89
2018-05-15T16:52:34.471Z,96965.24
2018-05-15T16:55:05.480Z,96975.50
2018-05-15T16:57:36.494Z,96969.89
2018-05-15T17:00:07.516Z,96967.45
2018-05-15T17:02:38.527Z,96964.05
2018-05-15T17:05:09.639Z,96967.79
2018-05-15T17:07:40.679Z,96962.94
2018-05-15T17:10:11.750Z,96959.34
2018-05-15T17:12:42.786Z,96958.95
2018-05-15T17:15:13.833Z,96970.48
2018-05-15T17:17:44.845Z,96978.98
2018-05-15T17:20:15.862Z,96976.66
2018-05-15T17:22:46.832Z,96980.73
2018-05-15T17:25:17.868Z,96982.14
2018-05-15T17:27:48.891Z,96978.93
2018-05-15T17:30:19.902Z,96985.78
2018-05-15T17:32:50.873Z,97000.03
2018-05-15T17:35:21.878Z,96994.81
2018-05-15T17:37:52.906Z,97004.63
2018-05-15T17:40:23.926Z,96994.27
2018-05-15T17:42:54.944Z,96990.55
2018-05-15T17:45:25.999Z,96988.00
2018-05-15T17:47:56.974Z,96981.88
2018-05-15T17:50:27.950Z,96974.67
2018-05-15T17:52:59.013Z,96977.70
2018-05-15T17:55:29.987Z,96978.34
2018-05-15T17:58:00.955Z,96973.25
2018-05-15T18:00:31.938Z,96976.19
2018-05-15T18:03:02.907Z,96982.15
2018-05-15T18:05:33.908Z,96988.66
2018-05-15T18:08:04.886Z,96991.97
2018-05-15T18:10:35.854Z,97006.09
2018-05-15T18:13:06.865Z,97011.34
2018-05-15T18:15:37.917Z,97010.95
2018-05-15T18:18:08.912Z,97009.61
2018-05-15T18:20:39.932Z,97003.09
2018-05-15T18:23:10.964Z,97005.31
2018-05-15T18:25:41.918Z,96999.20
2018-05-15T18:28:12.934Z,96990.69
2018-05-15T18:30:43.972Z,96986.23
2018-05-15T18:33:15.042Z,96986.52
2018-05-15T18:35:45.998Z,96984.34
2018-05-15T18:38:17.022Z,96982.61
2018-05-15T18:40:47.999Z,96980.63
2018-05-15T18:43:19.018Z,96982.49
2018-05-15T18:45:49.993Z,96995.58
2018-05-15T18:48:21.044Z,97007.16
2018-05-15T18:50:52.129Z,97003.64
2018-05-15T18:53:23.076Z,97009.58
2018-05-15T18:55:54.083Z,97013.20
2018-05-15T18:58:25.292Z,97019.48
2018-05-15T19:00:56.324Z,97016.99
2018-05-15T19:03:27.317Z,97016.75
2018-05-15T19:05:58.321Z,97019.88
2018-05-15T19:08:29.334Z,97020.85
2018-05-15T19:11:00.324Z,97029.75
2018-05-15T19:13:31.331Z,97028.28
2018-05-15T19:16:02.346Z,97036.89
2018-05-15T19:18:33.355Z,97047.27
2018-05-15T19:21:04.360Z,97054.42
2018-05-15T19:23:35.389Z,97053.14
2018-05-15T19:26:13.218Z,97058.59
2018-05-15T19:28:44.228Z,97069.52
2018-05-15T19:31:15.251Z,97066.86
2018-05-15T19:33:51.155Z,97065.49
2018-05-15T19:36:28.355Z,97072.00
2018-05-15T19:39:05.336Z,97074.01
2018-05-15T19:41:36.401Z,97082.72
2018-05-15T19:44:07.387Z,97089.01
2018-05-15T19:46:38.391Z,97089.47
2018-05-15T19:49:09.381Z,97091.73
2018-05-15T19:51:40.376Z,97095.57
2018-05-15T19:54:11.370Z,97095.97
2018-05-15T19:59:15.925Z,97082.27
2018-05-15T20:01:46.980Z,97085.97
2018-05-15T20:04:17.946Z,97076.05
2018-05-15T20:06:48.963Z,97076.00
2018-05-15T20:09:20.012Z,97077.64
2018-05-15T20:11:51.013Z,97078.46
2018-05-15T20:14:22.052Z,97082.58
2018-05-15T20:16:53.059Z,97077.44
2018-05-15T20:19:24.108Z,97076.84
2018-05-15T20:21:55.099Z,97077.69
2018-05-15T20:24:26.118Z,97076.55
2018-05-15T20:26:57.134Z,97072.53
2018-05-15T20:29:28.202Z,97069.96
2018-05-15T20:31:59.172Z,97075.31
2018-05-15T20:34:30.273Z,97077.62
2018-05-15T20:37:01.245Z,97071.69
2018-05-15T20:39:32.274Z,97071.46
2018-05-15T20:42:03.377Z,97075.83
2018-05-15T20:44:34.292Z,97078.91
2018-05-15T20:47:05.285Z,97080.50
2018-05-15T20:49:36.328Z,97084.28
2018-05-15T20:52:07.394Z,97087.63
2018-05-15T20:54:38.351Z,97079.02
2018-05-15T20:57:09.342Z,97085.70
2018-05-15T20:59:40.311Z,97095.78
2018-05-15T21:02:11.312Z,97094.34
2018-05-15T21:04:42.324Z,97096.72
2018-05-15T21:07:13.329Z,97098.83
2018-05-15T21:09:44.286Z,97106.38
2018-05-15T21:12:15.300Z,97101.34
2018-05-15T21:14:46.292Z,97107.44
2018-05-15T21:17:17.266Z,97105.30
2018-05-15T21:19:48.260Z,97104.16
2018-05-15T21:22:19.284Z,97108.47
2018-05-15T21:24:50.226Z,97105.34
2018-05-15T21:27:21.246Z,97104.48
2018-05-15T21:29:52.227Z,97097.81
2018-05-15T21:32:23.234Z,97099.39
2018-05-15T21:34:54.222Z,97093.38
2018-05-15T21:37:25.231Z,97095.95
2018-05-15T21:39:56.216Z,97095.76
2018-05-15T21:42:27.210Z,97096.78
2018-05-15T21:44:58.195Z,97100.09
2018-05-15T21:47:29.224Z,97101.42
2018-05-15T21:50:00.279Z,97095.05
2018-05-15T21:52:31.240Z,97107.61
2018-05-15T21:55:02.285Z,97106.56
2018-05-15T21:57:33.268Z,97103.28
2018-05-15T22:00:04.270Z,97103.42
2018-05-15T22:02:35.233Z,97104.92
2018-05-15T22:05:06.258Z,97103.61
2018-05-15T22:07:37.266Z,97107.13
2018-05-15T22:10:08.282Z,97106.16
2018-05-15T22:12:51.577Z,97113.09
2018-05-15T22:15:34.842Z,97103.63
2018-05-15T22:18:18.229Z,97108.34
2018-05-15T22:21:01.676Z,97107.84
2018-05-15T22:23:32.447Z,97100.66
2018-05-15T22:26:03.465Z,97100.67
2018-05-15T22:28:34.455Z,97108.67
2018-05-15T22:31:05.693Z,97107.13
2018-05-15T22:33:36.661Z,97103.41
2018-05-15T22:36:07.671Z,97102.63
2018-05-15T22:38:38.633Z,97109.34
2018-05-15T22:41:09.638Z,97110.11
2018-05-15T22:43:40.651Z,97105.00
2018-05-15T22:46:11.689Z,97104.39
2018-05-15T22:48:42.698Z,97100.05
2018-05-15T22:51:13.716Z,97099.33
2018-05-15T22:53:44.714Z,97106.89
2018-05-15T22:56:15.693Z,97095.17
2018-05-15T22:58:46.694Z,97096.42
2018-05-15T23:01:17.714Z,97098.56
2018-05-15T23:03:48.741Z,97098.16
2018-05-15T23:06:19.787Z,97094.38
2018-05-15T23:08:50.739Z,97096.43
2018-05-15T23:11:21.749Z,97098.63
2018-05-15T23:13:52.763Z,97096.31
2018-05-15T23:16:23.721Z,97097.91
2018-05-15T23:18:54.732Z,97099.38
2018-05-15T23:21:25.751Z,97090.35
2018-05-15T23:23:56.813Z,97088.09
2018-05-15T23:26:27.799Z,97086.79
2018-05-15T23:28:58.825Z,97085.16
2018-05-15T23:31:29.810Z,97094.25
2018-05-15T23:34:00.816Z,97088.47
2018-05-15T23:36:31.774Z,97088.16
2018-05-15T23:39:02.817Z,97081.66
2018-05-15T23:41:33.780Z,97084.63
2018-05-15T23:44:04.771Z,97080.53
2018-05-15T23:46:35.730Z,97088.26
2018-05-15T23:49:06.751Z,97090.22
2018-05-15T23:51:37.704Z,97085.30
2018-05-15T23:54:08.733Z,97083.07
2018-05-15T23:56:39.718Z,97079.37
2018-05-15T23:59:10.738Z,97077.70
